createdAt,value
2017-08-21T00:00:45.633Z,1.75
2017-08-21T00:03:12.532Z,2.50
2017-08-21T00:05:39.341Z,2.20
2017-08-21T00:08:06.133Z,2.40
2017-08-21T00:10:33.142Z,2.10
2017-08-21T00:12:59.419Z,2.50
2017-08-21T00:15:26.385Z,1.67
2017-08-21T00:17:53.675Z,2.15
2017-08-21T00:20:19.975Z,1.50
2017-08-21T00:22:46.273Z,2.05
2017-08-21T00:25:12.533Z,2.37
2017-08-21T00:27:39.252Z,2.80
2017-08-21T00:30:06.916Z,2.40
2017-08-21T00:32:34.179Z,2.70
2017-08-21T00:35:00.483Z,2.50
2017-08-21T00:37:27.179Z,2.33
2017-08-21T00:39:53.894Z,1.80
2017-08-21T00:42:20.793Z,2.60
2017-08-21T00:44:47.549Z,2.30
2017-08-21T00:47:13.851Z,2.50
2017-08-21T00:49:40.158Z,2.53
2017-08-21T00:52:07.395Z,2.70
2017-08-21T00:54:33.672Z,2.50
2017-08-21T00:57:00.733Z,2.42
2017-08-21T00:59:28.051Z,2.20
2017-08-21T01:01:55.303Z,2.20
2017-08-21T01:04:21.600Z,2.50
2017-08-21T01:06:47.878Z,2.70
2017-08-21T01:09:14.905Z,2.17
2017-08-21T01:11:42.639Z,2.28
2017-08-21T01:14:10.751Z,2.40
2017-08-21T01:16:37.618Z,2.00
2017-08-21T01:19:05.140Z,2.05
2017-08-21T01:21:31.426Z,2.35
2017-08-21T01:23:58.271Z,2.40
2017-08-21T01:26:25.086Z,2.60
2017-08-21T01:28:52.190Z,3.40
2017-08-21T01:31:18.472Z,3.30
2017-08-21T01:33:45.078Z,2.45
2017-08-21T01:36:13.053Z,2.40
2017-08-21T01:38:39.563Z,2.62
2017-08-21T01:41:07.481Z,2.30
2017-08-21T01:43:33.748Z,2.50
2017-08-21T01:46:01.004Z,2.37
2017-08-21T01:48:27.515Z,2.40
2017-08-21T01:50:54.602Z,2.55
2017-08-21T01:53:21.450Z,2.15
2017-08-21T01:55:47.718Z,2.58
2017-08-21T01:58:14.510Z,2.47
2017-08-21T02:00:42.853Z,2.60
2017-08-21T02:03:09.812Z,2.70
2017-08-21T02:05:37.155Z,3.12
2017-08-21T02:08:03.415Z,2.67
2017-08-21T02:10:29.838Z,2.80
2017-08-21T02:12:56.757Z,2.90
2017-08-21T02:15:24.030Z,2.50
2017-08-21T02:17:50.285Z,3.12
2017-08-21T02:20:17.092Z,2.92
2017-08-21T02:22:43.375Z,3.78
2017-08-21T02:25:10.413Z,3.53
2017-08-21T02:27:36.687Z,3.35
2017-08-21T02:30:03.937Z,4.05
2017-08-21T02:32:30.203Z,3.20
2017-08-21T02:34:56.462Z,2.60
2017-08-21T02:37:23.824Z,2.60
2017-08-21T02:39:51.485Z,2.97
2017-08-21T02:42:17.913Z,2.80
2017-08-21T02:44:46.186Z,3.70
2017-08-21T02:47:14.246Z,2.90
2017-08-21T02:49:41.524Z,2.72
2017-08-21T02:52:07.975Z,2.75
2017-08-21T02:54:34.328Z,2.80
2017-08-21T02:57:01.484Z,2.80
2017-08-21T02:59:28.423Z,3.15
2017-08-21T03:01:54.997Z,2.78
2017-08-21T03:04:22.007Z,3.30
2017-08-21T03:06:48.506Z,2.60
2017-08-21T03:09:15.961Z,2.80
2017-08-21T03:11:42.220Z,3.35
2017-08-21T03:14:09.448Z,3.95
2017-08-21T03:16:36.664Z,4.70
2017-08-21T03:19:04.956Z,3.40
2017-08-21T03:21:31.952Z,4.75
2017-08-21T03:23:58.218Z,3.83
2017-08-21T03:26:25.253Z,2.87
2017-08-21T03:28:52.024Z,3.20
2017-08-21T03:31:18.303Z,3.35
2017-08-21T03:33:44.908Z,3.20
2017-08-21T03:36:12.042Z,2.92
2017-08-21T03:38:38.365Z,2.92
2017-08-21T03:41:05.156Z,3.20
2017-08-21T03:43:31.451Z,3.17
2017-08-21T03:45:57.734Z,3.10
2017-08-21T03:48:24.891Z,4.28
2017-08-21T03:50:51.805Z,3.00
2017-08-21T03:53:18.064Z,3.58
2017-08-21T03:55:44.356Z,2.80
2017-08-21T03:58:11.145Z,4.10
2017-08-21T04:00:37.750Z,3.28
2017-08-21T04:03:04.550Z,3.60
2017-08-21T04:05:31.317Z,3.42
2017-08-21T04:07:58.652Z,3.12
2017-08-21T04:10:25.440Z,3.12
2017-08-21T04:12:52.570Z,3.90
2017-08-21T04:15:19.477Z,3.90
2017-08-21T04:17:45.711Z,3.15
2017-08-21T04:20:12.963Z,3.30
2017-08-21T04:22:40.030Z,3.33
2017-08-21T04:25:06.322Z,3.67
2017-08-21T04:27:32.587Z,3.17
2017-08-21T04:29:59.457Z,3.47
2017-08-21T04:32:26.511Z,3.20
2017-08-21T04:34:53.121Z,3.65
2017-08-21T04:37:20.595Z,3.97
2017-08-21T04:39:47.613Z,3.37
2017-08-21T04:42:14.497Z,3.50
2017-08-21T04:44:40.738Z,3.53
2017-08-21T04:47:08.476Z,3.60
2017-08-21T04:49:34.706Z,3.90
2017-08-21T04:52:01.288Z,3.92
2017-08-21T04:54:28.559Z,3.30
2017-08-21T04:56:55.795Z,3.40
2017-08-21T04:59:22.346Z,3.50
2017-08-21T05:01:48.845Z,3.60
2017-08-21T05:04:16.522Z,3.45
2017-08-21T05:06:43.316Z,3.45
2017-08-21T05:09:10.280Z,3.65
2017-08-21T05:11:37.286Z,4.05
2017-08-21T05:14:03.583Z,4.80
2017-08-21T05:16:29.848Z,3.65
2017-08-21T05:18:56.746Z,4.22
2017-08-21T05:21:23.854Z,3.67
2017-08-21T05:23:50.788Z,3.92
2017-08-21T05:26:18.082Z,3.75
2017-08-21T05:28:45.099Z,4.37
2017-08-21T05:31:11.697Z,3.60
2017-08-21T05:33:38.661Z,3.17
2017-08-21T05:36:05.156Z,3.95
2017-08-21T05:38:31.524Z,4.70
2017-08-21T05:40:57.814Z,4.72
2017-08-21T05:43:24.596Z,4.50
2017-08-21T05:45:50.873Z,5.07
2017-08-21T05:48:17.924Z,4.70
2017-08-21T05:50:44.209Z,5.17
2017-08-21T05:53:10.496Z,4.03
2017-08-21T05:55:37.790Z,4.30
2017-08-21T05:58:04.262Z,4.07
2017-08-21T06:00:31.645Z,3.87
2017-08-21T06:02:58.739Z,4.47
2017-08-21T06:05:25.558Z,4.93
2017-08-21T06:07:52.178Z,5.10
2017-08-21T06:10:19.164Z,4.13
2017-08-21T06:12:45.440Z,4.53
2017-08-21T06:15:12.428Z,4.40
2017-08-21T06:17:39.668Z,4.80
2017-08-21T06:20:06.833Z,5.33
2017-08-21T06:22:33.804Z,4.47
2017-08-21T06:25:01.528Z,4.93
2017-08-21T06:27:27.796Z,4.53
2017-08-21T06:29:55.702Z,4.53
2017-08-21T06:32:22.130Z,4.70
2017-08-21T06:34:48.416Z,4.40
2017-08-21T06:37:14.713Z,4.47
2017-08-21T06:39:40.966Z,4.27
2017-08-21T06:42:07.263Z,4.10
2017-08-21T06:44:33.577Z,4.50
2017-08-21T06:46:59.914Z,4.77
2017-08-21T06:49:27.045Z,3.90
2017-08-21T06:51:56.384Z,4.47
2017-08-21T06:54:22.788Z,3.70
2017-08-21T06:56:49.086Z,3.83
2017-08-21T06:59:15.514Z,4.40
2017-08-21T07:01:42.333Z,3.73
2017-08-21T07:04:08.808Z,4.00
2017-08-21T07:06:35.580Z,4.10
2017-08-21T07:09:01.864Z,3.27
2017-08-21T07:11:29.473Z,3.70
2017-08-21T07:13:56.283Z,4.07
2017-08-21T07:16:22.684Z,3.83
2017-08-21T07:18:49.321Z,3.53
2017-08-21T07:21:15.601Z,3.00
2017-08-21T07:23:41.895Z,3.40
2017-08-21T07:26:08.935Z,3.10
2017-08-21T07:28:35.975Z,3.40
2017-08-21T07:31:02.288Z,3.40
2017-08-21T07:33:28.580Z,3.23
2017-08-21T07:35:55.078Z,3.33
2017-08-21T07:38:22.149Z,3.30
2017-08-21T07:40:48.525Z,3.20
2017-08-21T07:43:14.826Z,3.53
2017-08-21T07:45:41.906Z,3.23
2017-08-21T07:48:08.208Z,3.80
2017-08-21T07:50:34.456Z,3.50
2017-08-21T07:53:01.203Z,3.93
2017-08-21T07:55:27.533Z,3.80
2017-08-21T07:57:54.075Z,3.43
2017-08-21T08:00:21.003Z,3.83
2017-08-21T08:02:47.589Z,3.53
2017-08-21T08:05:14.540Z,3.07
2017-08-21T08:07:40.790Z,3.90
2017-08-21T08:10:07.798Z,3.40
2017-08-21T08:12:34.852Z,3.50
2017-08-21T08:15:01.685Z,3.90
2017-08-21T08:17:28.820Z,3.93
2017-08-21T08:19:55.107Z,3.90
2017-08-21T08:22:22.861Z,3.60
2017-08-21T08:24:49.910Z,3.60
2017-08-21T08:27:16.178Z,4.13
2017-08-21T08:29:42.456Z,2.90
2017-08-21T08:32:09.005Z,2.80
2017-08-21T08:34:36.093Z,3.30
2017-08-21T08:37:02.813Z,3.37
2017-08-21T08:39:29.134Z,2.93
2017-08-21T08:41:55.367Z,3.33
2017-08-21T08:44:22.192Z,3.17
2017-08-21T08:46:49.212Z,3.57
2017-08-21T08:49:17.204Z,3.10
2017-08-21T08:51:43.493Z,3.27
2017-08-21T08:54:10.740Z,3.17
2017-08-21T08:56:38.032Z,3.40
2017-08-21T08:59:04.272Z,3.27
2017-08-21T09:01:30.564Z,3.30
2017-08-21T09:03:57.597Z,3.17
2017-08-21T09:06:24.874Z,3.50
2017-08-21T09:08:51.905Z,3.70
2017-08-21T09:11:18.686Z,3.80
2017-08-21T09:13:45.047Z,3.10
2017-08-21T09:16:11.951Z,3.67
2017-08-21T09:18:38.250Z,3.17
2017-08-21T09:21:05.532Z,3.17
2017-08-21T09:23:32.074Z,3.20
2017-08-21T09:25:58.310Z,4.00
2017-08-21T09:28:24.581Z,3.60
2017-08-21T09:30:50.831Z,2.80
2017-08-21T09:33:17.884Z,3.07
2017-08-21T09:35:44.143Z,2.93
2017-08-21T09:38:10.424Z,3.03
2017-08-21T09:40:36.974Z,3.47
2017-08-21T09:43:03.939Z,3.43
2017-08-21T09:45:31.206Z,3.33
2017-08-21T09:47:58.489Z,3.43
2017-08-21T09:50:24.885Z,3.33
2017-08-21T09:52:51.154Z,2.70
2017-08-21T09:55:17.874Z,2.70
2017-08-21T09:57:45.526Z,2.73
2017-08-21T10:00:12.513Z,2.83
2017-08-21T10:02:39.121Z,3.10
2017-08-21T10:05:05.977Z,3.10
2017-08-21T10:07:32.865Z,3.03
2017-08-21T10:09:59.872Z,3.20
2017-08-21T10:12:26.675Z,2.90
2017-08-21T10:15:24.509Z,2.57
2017-08-21T10:17:50.940Z,3.30
2017-08-21T10:20:17.320Z,3.10
2017-08-21T10:22:44.034Z,2.77
2017-08-21T10:25:10.299Z,2.63
2017-08-21T10:27:36.559Z,2.50
2017-08-21T10:30:03.443Z,3.30
2017-08-21T10:32:30.440Z,2.93
2017-08-21T10:34:56.764Z,3.07
2017-08-21T10:37:23.067Z,2.50
2017-08-21T10:39:49.384Z,2.90
2017-08-21T10:42:16.162Z,3.57
2017-08-21T10:44:42.982Z,3.13
2017-08-21T10:47:09.412Z,3.10
2017-08-21T10:49:36.787Z,2.60
2017-08-21T10:52:03.092Z,3.13
2017-08-21T10:54:29.583Z,3.17
2017-08-21T10:56:55.857Z,3.57
2017-08-21T10:59:22.153Z,2.93
2017-08-21T11:01:49.054Z,3.13
2017-08-21T11:04:15.345Z,2.67
2017-08-21T11:06:42.628Z,3.07
2017-08-21T11:09:09.513Z,3.40
2017-08-21T11:11:36.400Z,3.97
2017-08-21T11:14:02.652Z,3.07
2017-08-21T11:16:29.930Z,2.63
2017-08-21T11:18:56.236Z,3.30
2017-08-21T11:21:22.559Z,3.00
2017-08-21T11:23:48.872Z,3.37
2017-08-21T11:26:15.148Z,3.13
2017-08-21T11:28:41.463Z,3.00
2017-08-21T11:31:08.290Z,2.90
2017-08-21T11:33:35.901Z,2.90
2017-08-21T11:36:03.193Z,2.63
2017-08-21T11:38:30.475Z,2.60
2017-08-21T11:40:57.263Z,2.87
2017-08-21T11:43:24.779Z,2.80
2017-08-21T11:45:51.053Z,3.00
2017-08-21T11:48:17.335Z,2.80
2017-08-21T11:50:44.145Z,2.70
2017-08-21T11:53:10.507Z,3.17
2017-08-21T11:55:38.093Z,3.20
2017-08-21T11:58:05.190Z,2.80
2017-08-21T12:00:31.734Z,2.80
2017-08-21T12:02:58.719Z,2.47
2017-08-21T12:05:26.193Z,2.50
2017-08-21T12:07:52.503Z,3.10
2017-08-21T12:10:18.763Z,3.30
2017-08-21T12:12:45.043Z,2.80
2017-08-21T12:15:11.885Z,2.93
2017-08-21T12:17:38.177Z,2.40
2017-08-21T12:20:05.430Z,3.03
2017-08-21T12:22:31.689Z,2.80
2017-08-21T12:24:57.981Z,3.10
2017-08-21T12:27:24.254Z,2.90
2017-08-21T12:29:50.576Z,3.30
2017-08-21T12:32:17.856Z,2.70
2017-08-21T12:34:44.145Z,3.40
2017-08-21T12:37:10.483Z,3.07
2017-08-21T12:39:36.818Z,2.90
2017-08-21T12:42:04.701Z,3.40
2017-08-21T12:44:30.956Z,3.00
2017-08-21T12:46:57.846Z,3.27
2017-08-21T12:49:25.029Z,2.70
2017-08-21T12:51:51.357Z,3.27
2017-08-21T12:54:17.675Z,3.20
2017-08-21T12:56:43.984Z,3.37
2017-08-21T12:59:10.431Z,3.07
2017-08-21T13:01:37.896Z,2.90
2017-08-21T13:04:04.385Z,3.07
2017-08-21T13:06:30.761Z,3.13
2017-08-21T13:08:57.700Z,2.80
2017-08-21T13:11:24.636Z,3.13
2017-08-21T13:13:51.411Z,2.77
2017-08-21T13:16:19.055Z,3.20
2017-08-21T13:18:46.142Z,2.80
2017-08-21T13:21:12.432Z,2.43
2017-08-21T13:23:38.685Z,2.73
2017-08-21T13:26:05.042Z,2.63
2017-08-21T13:28:31.408Z,2.80
2017-08-21T13:30:58.342Z,2.93
2017-08-21T13:33:25.323Z,3.47
2017-08-21T13:35:51.625Z,2.80
2017-08-21T13:38:18.966Z,3.20
2017-08-21T13:40:45.808Z,3.00
2017-08-21T13:43:12.490Z,2.97
2017-08-21T13:45:40.163Z,3.00
2017-08-21T13:48:07.801Z,2.83
2017-08-21T13:50:34.080Z,3.00
2017-08-21T13:53:01.360Z,2.97
2017-08-21T13:55:28.734Z,3.30
2017-08-21T13:57:55.658Z,3.47
2017-08-21T14:00:21.998Z,3.00
2017-08-21T14:02:48.288Z,2.80
2017-08-21T14:05:14.543Z,3.20
2017-08-21T14:07:42.231Z,3.63
2017-08-21T14:10:08.606Z,2.87
2017-08-21T14:12:34.924Z,3.20
2017-08-21T14:15:01.599Z,3.43
2017-08-21T14:17:29.311Z,3.03
2017-08-21T14:19:55.950Z,3.93
2017-08-21T14:22:22.730Z,3.10
2017-08-21T14:24:49.624Z,3.17
2017-08-21T14:27:17.140Z,3.30
2017-08-21T14:29:43.446Z,2.90
2017-08-21T14:32:10.243Z,4.07
2017-08-21T14:34:36.944Z,3.80
2017-08-21T14:37:03.906Z,2.80
2017-08-21T14:39:30.427Z,3.63
2017-08-21T14:41:57.072Z,3.43
2017-08-21T14:44:23.881Z,3.07
2017-08-21T14:46:50.203Z,3.37
2017-08-21T14:49:16.556Z,3.87
2017-08-21T14:51:43.692Z,3.07
2017-08-21T14:54:09.957Z,2.83
2017-08-21T14:56:36.246Z,3.60
2017-08-21T15:01:37.107Z,2.90
2017-08-21T15:04:03.427Z,3.90
2017-08-21T15:06:30.739Z,2.97
2017-08-21T15:08:57.039Z,3.90
2017-08-21T15:11:23.325Z,3.07
2017-08-21T15:13:49.602Z,3.70
2017-08-21T15:16:16.635Z,3.03
2017-08-21T15:18:43.568Z,3.07
2017-08-21T15:21:10.595Z,3.70
2017-08-21T15:23:37.079Z,3.67
2017-08-21T15:26:04.005Z,3.20
2017-08-21T15:28:31.284Z,3.97
2017-08-21T15:30:57.867Z,3.77
2017-08-21T15:33:25.137Z,3.97
2017-08-21T15:35:52.377Z,3.07
2017-08-21T15:38:19.571Z,3.37
2017-08-21T15:40:45.897Z,3.40
2017-08-21T15:43:12.185Z,3.20
2017-08-21T15:45:39.164Z,3.40
2017-08-21T15:48:06.414Z,3.57
2017-08-21T15:50:32.915Z,3.20
2017-08-21T15:52:59.181Z,3.03
2017-08-21T15:55:26.040Z,3.50
2017-08-21T15:57:52.373Z,3.17
2017-08-21T16:00:19.625Z,3.27
2017-08-21T16:02:46.026Z,3.30
2017-08-21T16:05:12.936Z,3.87
2017-08-21T16:07:39.258Z,3.13
2017-08-21T16:10:06.245Z,4.00
2017-08-21T16:12:33.265Z,3.10
2017-08-21T16:14:59.754Z,3.73
2017-08-21T16:17:26.624Z,3.40
2017-08-21T16:19:53.917Z,5.17
2017-08-21T16:22:21.270Z,2.90
2017-08-21T16:24:48.643Z,3.23
2017-08-21T16:27:15.650Z,3.57
2017-08-21T16:29:43.886Z,3.90
2017-08-21T16:32:10.507Z,3.90
2017-08-21T16:34:37.720Z,3.67
2017-08-21T16:37:04.492Z,3.33
2017-08-21T16:39:31.324Z,4.20
2017-08-21T16:41:57.603Z,4.03
2017-08-21T16:44:24.442Z,4.90
2017-08-21T16:46:52.537Z,3.90
2017-08-21T16:49:18.942Z,3.60
2017-08-21T16:51:46.324Z,3.40
2017-08-21T16:54:12.819Z,3.60
2017-08-21T16:56:40.880Z,4.27
2017-08-21T16:59:08.156Z,3.20
2017-08-21T17:01:36.204Z,4.00
2017-08-21T17:04:02.701Z,3.97
2017-08-21T17:06:29.142Z,3.40
2017-08-21T17:08:56.142Z,3.57
2017-08-21T17:11:22.472Z,3.80
2017-08-21T17:13:48.748Z,3.57
2017-08-21T17:16:16.044Z,3.83
2017-08-21T17:18:42.536Z,5.10
2017-08-21T17:21:08.886Z,4.63
2017-08-21T17:23:35.958Z,4.73
2017-08-21T17:26:03.214Z,4.27
2017-08-21T17:28:30.058Z,5.57
2017-08-21T17:30:57.509Z,4.50
2017-08-21T17:33:25.193Z,4.47
2017-08-21T17:35:51.508Z,4.50
2017-08-21T17:38:17.792Z,4.30
2017-08-21T17:40:44.538Z,4.63
2017-08-21T17:43:10.947Z,4.53
2017-08-21T17:45:37.219Z,5.03
2017-08-21T17:48:03.952Z,6.10
2017-08-21T17:50:30.393Z,5.10
2017-08-21T17:52:57.583Z,4.70
2017-08-21T17:55:24.541Z,6.20
2017-08-21T17:57:51.342Z,4.80
2017-08-21T18:00:17.634Z,4.13
2017-08-21T18:02:43.908Z,5.07
2017-08-21T18:05:10.819Z,5.60
2017-08-21T18:07:37.347Z,4.80
2017-08-21T18:10:03.678Z,5.53
2017-08-21T18:12:29.950Z,4.90
2017-08-21T18:14:56.386Z,5.30
2017-08-21T18:17:22.823Z,5.37
2017-08-21T18:19:50.696Z,6.00
2017-08-21T18:22:16.989Z,5.30
2017-08-21T18:24:43.365Z,6.20
2017-08-21T18:27:09.646Z,7.00
2017-08-21T18:29:35.969Z,6.53
2017-08-21T18:32:02.503Z,5.93
2017-08-21T18:34:28.791Z,5.63
2017-08-21T18:36:55.052Z,5.27
2017-08-21T18:39:24.149Z,5.80
2017-08-21T18:41:50.429Z,5.13
2017-08-21T18:44:16.979Z,5.10
2017-08-21T18:46:44.848Z,6.13
2017-08-21T18:49:11.195Z,6.43
2017-08-21T18:51:42.874Z,6.00
2017-08-21T18:54:10.070Z,6.00
2017-08-21T18:56:39.092Z,5.43
2017-08-21T18:59:06.104Z,5.40
2017-08-21T19:01:32.686Z,5.57
2017-08-21T19:03:59.538Z,5.47
2017-08-21T19:06:26.157Z,5.80
2017-08-21T19:08:53.053Z,6.10
2017-08-21T19:11:20.768Z,6.63
2017-08-21T19:13:47.321Z,6.70
2017-08-21T19:16:14.491Z,7.07
2017-08-21T19:18:40.852Z,6.40
2017-08-21T19:21:07.543Z,6.77
2017-08-21T19:23:35.358Z,6.97
2017-08-21T19:26:01.636Z,5.80
2017-08-21T19:28:27.937Z,6.10
2017-08-21T19:30:55.424Z,6.40
2017-08-21T19:33:23.345Z,6.30
2017-08-21T19:35:50.246Z,6.73
2017-08-21T19:38:17.562Z,5.82
2017-08-21T19:40:45.100Z,6.97
2017-08-21T19:43:11.448Z,6.83
2017-08-21T19:45:38.251Z,7.03
2017-08-21T19:48:04.793Z,6.50
2017-08-21T19:50:31.693Z,6.47
2017-08-21T19:52:57.994Z,7.20
2017-08-21T19:55:25.199Z,6.80
2017-08-21T19:57:51.906Z,7.13
2017-08-21T20:00:18.298Z,7.47
2017-08-21T20:02:44.681Z,7.62
2017-08-21T20:05:10.964Z,6.00
2017-08-21T20:07:38.012Z,6.20
2017-08-21T20:10:04.677Z,6.68
2017-08-21T20:12:31.020Z,5.40
2017-08-21T20:14:57.773Z,5.90
2017-08-21T20:17:24.226Z,5.60
2017-08-21T20:19:50.523Z,6.43
2017-08-21T20:22:17.768Z,5.60
2017-08-21T20:24:44.257Z,6.90
2017-08-21T20:27:10.592Z,5.95
2017-08-21T20:29:36.902Z,6.12
2017-08-21T20:32:03.773Z,6.78
2017-08-21T20:34:30.127Z,6.50
2017-08-21T20:36:56.472Z,6.50
2017-08-21T20:39:22.926Z,5.68
2017-08-21T20:41:50.567Z,6.90
2017-08-21T20:44:17.876Z,6.72
2017-08-21T20:46:44.486Z,6.85
2017-08-21T20:49:11.391Z,8.23
2017-08-21T20:51:37.698Z,7.20
2017-08-21T20:54:04.950Z,6.28
2017-08-21T20:56:31.262Z,5.18
2017-08-21T20:58:57.906Z,7.03
2017-08-21T21:01:24.178Z,5.95
2017-08-21T21:03:50.775Z,6.00
2017-08-21T21:06:17.041Z,5.95
2017-08-21T21:08:43.357Z,6.07
2017-08-21T21:11:10.341Z,5.32
2017-08-21T21:13:36.888Z,5.40
2017-08-21T21:16:03.590Z,5.70
2017-08-21T21:18:30.402Z,6.53
2017-08-21T21:20:56.784Z,5.20
2017-08-21T21:23:23.654Z,5.80
2017-08-21T21:25:49.963Z,7.07
2017-08-21T21:28:16.257Z,6.15
2017-08-21T21:30:42.505Z,5.20
2017-08-21T21:33:09.187Z,5.50
2017-08-21T21:35:35.540Z,6.55
2017-08-21T21:38:02.857Z,5.78
2017-08-21T21:40:29.198Z,4.18
2017-08-21T21:42:55.460Z,5.50
2017-08-21T21:45:21.745Z,4.60
2017-08-21T21:47:48.462Z,4.57
2017-08-21T21:50:15.611Z,5.10
2017-08-21T21:52:41.928Z,4.30
2017-08-21T21:55:09.231Z,6.37
2017-08-21T21:57:35.869Z,5.53
2017-08-21T22:00:02.963Z,6.75
2017-08-21T22:02:29.365Z,5.85
2017-08-21T22:04:55.688Z,6.62
2017-08-21T22:07:21.948Z,5.62
2017-08-21T22:09:48.809Z,6.60
2017-08-21T22:12:15.072Z,6.18
2017-08-21T22:14:41.892Z,5.07
2017-08-21T22:17:08.151Z,6.20
2017-08-21T22:19:34.424Z,4.68
2017-08-21T22:22:00.730Z,5.60
2017-08-21T22:24:27.000Z,5.45
2017-08-21T22:26:54.277Z,5.35
2017-08-21T22:29:21.836Z,5.10
2017-08-21T22:31:48.728Z,5.43
2017-08-21T22:34:14.984Z,5.53
2017-08-21T22:36:41.284Z,6.25
2017-08-21T22:39:07.633Z,5.50
2017-08-21T22:41:33.879Z,5.85
2017-08-21T22:44:02.150Z,5.05
2017-08-21T22:46:28.967Z,5.68
2017-08-21T22:48:55.866Z,6.37
2017-08-21T22:51:22.677Z,5.70
2017-08-21T22:53:49.904Z,5.15
2017-08-21T22:56:17.111Z,5.85
2017-08-21T22:58:44.727Z,5.70
2017-08-21T23:01:11.028Z,6.85
2017-08-21T23:03:39.095Z,5.50
2017-08-21T23:06:06.183Z,5.53
2017-08-21T23:08:32.600Z,6.00
2017-08-21T23:10:59.863Z,5.40
2017-08-21T23:13:26.800Z,4.82
2017-08-21T23:15:53.130Z,5.90
2017-08-21T23:18:20.565Z,6.07
2017-08-21T23:20:47.720Z,5.68
2017-08-21T23:23:14.585Z,5.87
2017-08-21T23:25:40.851Z,4.97
2017-08-21T23:28:07.160Z,5.70
2017-08-21T23:30:33.718Z,4.70
2017-08-21T23:33:01.227Z,5.62
2017-08-21T23:35:27.518Z,5.25
2017-08-21T23:37:54.781Z,5.70
2017-08-21T23:40:21.069Z,6.22
2017-08-21T23:42:47.963Z,5.32
2017-08-21T23:45:15.806Z,5.68
2017-08-21T23:47:42.824Z,5.50
2017-08-21T23:50:10.095Z,5.00
2017-08-21T23:52:36.380Z,4.72
2017-08-21T23:55:04.200Z,5.87
2017-08-21T23:57:30.755Z,5.53
2017-08-21T23:59:57.810Z,6.00
